Time;durP1;ratioP1;P1;durP2;ratioP2;P2;SDS_P1;SDS_P2;PMS_P1;PMS_P2;Temp;Humidity;BMP_temperature;BMP_pressure;BME280_temperature;BME280_humidity;BME280_pressure;Samples;Min_cycle;Max_cycle;Signal;HPM_P1;HPM_P2
2024/01/31 00:00:26;;;;;;;27.90;12.18;;;;;;;;;;1043771;28;20081;-68
2024/01/31 00:01:17;;;;;;;24.65;12.45;;;;;;;;;;1045135;28;20457;-68
2024/01/31 00:01:51;;;;;;;21.88;11.57;;;;;;;;;;1046104;28;20542;-67
2024/01/31 00:02:22;;;;;;;21.48;11.15;;;;;;;;;;1044978;28;20882;-69
2024/01/31 00:02:53;;;;;;;23.15;11.35;;;;;;;;;;1046357;28;20045;-67
2024/01/31 00:03:23;;;;;;;22.38;10.82;;;;;;;;;;1043533;28;20078;-68
2024/01/31 00:03:54;;;;;;;26.75;11.57;;;;;;;;;;1046358;28;20227;-67
2024/01/31 00:04:25;;;;;;;24.75;10.98;;;;;;;;;;1047847;28;20446;-68
2024/01/31 00:04:55;;;;;;;23.85;12.13;;;;;;;;;;1046557;28;20140;-68
2024/01/31 00:05:26;;;;;;;26.05;11.98;;;;;;;;;;1047266;28;20048;-67
2024/01/31 00:05:56;;;;;;;19.73;11.18;;;;;;;;;;1049899;28;20078;-67
2024/01/31 00:06:27;;;;;;;20.38;10.93;;;;;;;;;;1048401;28;20044;-67
2024/01/31 00:06:57;;;;;;;23.50;11.07;;;;;;;;;;1050433;28;20128;-67
2024/01/31 00:07:28;;;;;;;23.38;11.75;;;;;;;;;;1048217;28;20714;-68
2024/01/31 00:07:58;;;;;;;21.35;10.30;;;;;;;;;;1050668;28;20052;-68
2024/01/31 00:08:31;;;;;;;24.02;10.80;;;;;;;;;;1049680;28;20132;-67
2024/01/31 00:09:03;;;;;;;22.13;11.43;;;;;;;;;;1048780;28;20117;-67
2024/01/31 00:09:33;;;;;;;24.55;11.45;;;;;;;;;;1050170;28;20127;-67
2024/01/31 00:10:04;;;;;;;25.27;11.45;;;;;;;;;;1048690;28;20126;-68
2024/01/31 00:10:35;;;;;;;27.52;11.82;;;;;;;;;;1048562;28;20040;-67
2024/01/31 00:11:08;;;;;;;23.27;12.32;;;;;;;;;;1047772;28;20048;-67
2024/01/31 00:11:39;;;;;;;22.25;11.15;;;;;;;;;;1048591;28;20044;-68
2024/01/31 00:12:09;;;;;;;21.98;12.93;;;;;;;;;;1048414;28;20059;-68
2024/01/31 00:12:40;;;;;;;23.33;11.57;;;;;;;;;;1048623;28;20067;-68
2024/01/31 00:13:10;;;;;;;25.02;12.25;;;;;;;;;;1048697;28;20135;-68
2024/01/31 00:13:41;;;;;;;24.23;11.77;;;;;;;;;;1048538;28;20062;-68
2024/01/31 00:14:13;;;;;;;24.83;11.93;;;;;;;;;;1049793;28;20135;-68
2024/01/31 00:14:44;;;;;;;19.63;10.90;;;;;;;;;;1048742;28;20050;-68
2024/01/31 00:15:16;;;;;;;26.58;11.75;;;;;;;;;;1048511;28;20059;-69
2024/01/31 00:15:46;;;;;;;25.25;11.25;;;;;;;;;;1047674;28;20127;-67
2024/01/31 00:16:17;;;;;;;26.23;11.65;;;;;;;;;;1049217;28;20052;-68
2024/01/31 00:16:48;;;;;;;23.92;11.90;;;;;;;;;;1048484;28;20040;-68
2024/01/31 00:17:18;;;;;;;18.77;11.38;;;;;;;;;;1048383;28;20045;-68
2024/01/31 00:17:49;;;;;;;18.70;10.23;;;;;;;;;;1047689;28;20058;-68
2024/01/31 00:18:19;;;;;;;22.80;11.45;;;;;;;;;;1048424;28;20048;-67
2024/01/31 00:18:50;;;;;;;21.60;10.93;;;;;;;;;;1048230;28;20051;-67
2024/01/31 00:19:21;;;;;;;22.33;10.93;;;;;;;;;;1049423;28;20056;-69
2024/01/31 00:19:52;;;;;;;19.45;10.90;;;;;;;;;;1048051;28;20048;-67
2024/01/31 00:20:22;;;;;;;20.65;9.93;;;;;;;;;;1048456;28;20128;-68
2024/01/31 00:20:53;;;;;;;24.83;11.77;;;;;;;;;;1047833;28;20051;-68
2024/01/31 00:21:23;;;;;;;20.88;10.88;;;;;;;;;;1047943;28;20045;-67
2024/01/31 00:21:54;;;;;;;25.65;11.60;;;;;;;;;;1049003;28;20048;-67
2024/01/31 00:22:25;;;;;;;20.60;11.38;;;;;;;;;;1048787;28;20052;-69
2024/01/31 00:22:55;;;;;;;19.52;10.75;;;;;;;;;;1047931;28;20055;-67
2024/01/31 00:23:26;;;;;;;27.30;11.88;;;;;;;;;;1049388;28;20123;-68
2024/01/31 00:23:56;;;;;;;20.88;11.15;;;;;;;;;;1049300;28;20051;-68
2024/01/31 00:24:27;;;;;;;18.85;10.88;;;;;;;;;;1049887;28;20416;-67
2024/01/31 00:24:57;;;;;;;23.45;11.75;;;;;;;;;;1048356;28;20071;-67
2024/01/31 00:25:28;;;;;;;22.13;11.38;;;;;;;;;;1049286;28;20056;-68
2024/01/31 00:25:58;;;;;;;25.48;10.85;;;;;;;;;;1047978;28;20454;-67
2024/01/31 00:26:29;;;;;;;21.67;12.07;;;;;;;;;;1048485;28;20048;-67
2024/01/31 00:26:59;;;;;;;20.23;10.55;;;;;;;;;;1048296;28;20060;-67
2024/01/31 00:27:30;;;;;;;20.90;11.02;;;;;;;;;;1048912;28;20494;-67
2024/01/31 00:28:00;;;;;;;22.35;11.60;;;;;;;;;;1047657;28;20442;-68
2024/01/31 00:28:31;;;;;;;23.48;11.50;;;;;;;;;;1048623;28;20048;-67
2024/01/31 00:29:01;;;;;;;23.20;10.93;;;;;;;;;;1047926;28;20055;-68
2024/01/31 00:29:32;;;;;;;21.25;11.70;;;;;;;;;;1049486;28;20466;-68
2024/01/31 00:30:03;;;;;;;23.52;10.90;;;;;;;;;;1048091;28;20047;-68
2024/01/31 00:30:34;;;;;;;21.40;11.07;;;;;;;;;;1048084;28;20211;-67
2024/01/31 00:31:04;;;;;;;22.70;10.95;;;;;;;;;;1048696;28;20055;-68
2024/01/31 00:31:35;;;;;;;18.70;11.10;;;;;;;;;;1049139;28;20082;-67
2024/01/31 00:32:06;;;;;;;21.23;10.90;;;;;;;;;;1048224;28;20048;-67
2024/01/31 00:32:36;;;;;;;21.10;11.05;;;;;;;;;;1048073;28;20152;-68
2024/01/31 00:33:07;;;;;;;23.45;11.75;;;;;;;;;;1047033;28;20458;-67
2024/01/31 00:33:39;;;;;;;20.13;10.48;;;;;;;;;;1049997;28;20455;-68
2024/01/31 00:34:09;;;;;;;24.15;11.02;;;;;;;;;;1047489;28;20052;-68
2024/01/31 00:34:40;;;;;;;23.60;11.35;;;;;;;;;;1048888;28;20060;-67
2024/01/31 00:35:10;;;;;;;23.63;11.73;;;;;;;;;;1047250;28;20123;-67
2024/01/31 00:35:41;;;;;;;19.77;11.13;;;;;;;;;;1049107;28;20062;-69
2024/01/31 00:36:11;;;;;;;21.17;10.55;;;;;;;;;;1047679;28;20048;-67
2024/01/31 00:36:42;;;;;;;23.98;10.93;;;;;;;;;;1048415;28;20377;-67
2024/01/31 00:37:13;;;;;;;18.42;10.65;;;;;;;;;;1050821;28;20051;-67
2024/01/31 00:37:43;;;;;;;25.45;10.55;;;;;;;;;;1052895;28;20044;-67
2024/01/31 00:38:13;;;;;;;19.92;10.93;;;;;;;;;;1051311;28;20059;-68
2024/01/31 00:38:44;;;;;;;24.10;10.60;;;;;;;;;;1051212;28;20048;-68
2024/01/31 00:39:14;;;;;;;21.52;9.90;;;;;;;;;;1049318;28;20115;-68
2024/01/31 00:39:48;;;;;;;22.48;11.63;;;;;;;;;;1048002;28;20080;-68
2024/01/31 00:40:19;;;;;;;19.70;10.40;;;;;;;;;;1047845;28;20070;-68
2024/01/31 00:40:49;;;;;;;19.27;10.13;;;;;;;;;;1047278;28;20052;-68
2024/01/31 00:41:20;;;;;;;20.90;10.55;;;;;;;;;;1049119;28;20052;-69
2024/01/31 00:41:50;;;;;;;21.58;11.10;;;;;;;;;;1047303;28;20040;-68
2024/01/31 00:42:21;;;;;;;21.45;10.05;;;;;;;;;;1049070;28;20041;-68
2024/01/31 00:42:51;;;;;;;18.60;10.48;;;;;;;;;;1047455;28;20056;-67
2024/01/31 00:43:22;;;;;;;23.50;11.15;;;;;;;;;;1048957;28;20488;-67
2024/01/31 00:43:53;;;;;;;18.23;10.23;;;;;;;;;;1048541;28;20048;-68
2024/01/31 00:44:23;;;;;;;24.20;10.82;;;;;;;;;;1049008;28;20051;-68
2024/01/31 00:44:54;;;;;;;21.13;10.35;;;;;;;;;;1048096;28;20048;-67
2024/01/31 00:45:24;;;;;;;20.50;9.60;;;;;;;;;;1047591;28;20051;-67
2024/01/31 00:45:55;;;;;;;18.98;10.57;;;;;;;;;;1047677;28;20098;-68
2024/01/31 00:46:25;;;;;;;24.60;11.93;;;;;;;;;;1048672;28;20071;-68
2024/01/31 00:46:56;;;;;;;24.70;10.38;;;;;;;;;;1047590;28;20048;-68
2024/01/31 00:47:26;;;;;;;20.60;10.13;;;;;;;;;;1049149;28;20150;-67
2024/01/31 00:47:57;;;;;;;20.25;10.50;;;;;;;;;;1047286;28;20554;-67
2024/01/31 00:48:28;;;;;;;21.30;11.00;;;;;;;;;;1049264;28;20530;-67
2024/01/31 00:48:58;;;;;;;22.00;10.63;;;;;;;;;;1048364;28;20052;-68
2024/01/31 00:49:29;;;;;;;20.92;10.60;;;;;;;;;;1048646;28;20458;-68
2024/01/31 00:49:59;;;;;;;22.27;10.30;;;;;;;;;;1048531;28;20488;-66
2024/01/31 00:50:30;;;;;;;20.02;10.38;;;;;;;;;;1048295;28;20462;-68
2024/01/31 00:51:00;;;;;;;22.83;11.27;;;;;;;;;;1048357;28;20056;-68
2024/01/31 00:51:31;;;;;;;20.50;10.20;;;;;;;;;;1047932;28;20384;-68
2024/01/31 00:52:01;;;;;;;20.35;10.68;;;;;;;;;;1049222;28;20043;-68
2024/01/31 00:52:32;;;;;;;19.02;10.25;;;;;;;;;;1047550;28;20484;-68
2024/01/31 00:53:03;;;;;;;23.52;11.23;;;;;;;;;;1048652;28;20086;-67
2024/01/31 00:53:33;;;;;;;25.80;11.27;;;;;;;;;;1047629;28;20147;-68
2024/01/31 00:54:04;;;;;;;19.63;10.20;;;;;;;;;;1048493;28;20600;-67
2024/01/31 00:54:34;;;;;;;21.15;10.13;;;;;;;;;;1047886;28;20044;-68
2024/01/31 00:55:06;;;;;;;23.75;10.30;;;;;;;;;;1047899;28;20638;-68
2024/01/31 00:55:36;;;;;;;19.13;10.40;;;;;;;;;;1048608;28;20043;-67
2024/01/31 00:56:08;;;;;;;19.83;10.32;;;;;;;;;;1048334;28;20087;-68
2024/01/31 00:56:39;;;;;;;21.17;10.50;;;;;;;;;;1048031;28;20051;-68
2024/01/31 00:57:10;;;;;;;19.48;10.13;;;;;;;;;;1048481;28;20044;-67
2024/01/31 00:57:40;;;;;;;20.73;10.57;;;;;;;;;;1048984;28;20131;-68
2024/01/31 00:58:11;;;;;;;23.92;11.15;;;;;;;;;;1047116;28;20127;-68
2024/01/31 00:58:41;;;;;;;24.83;10.55;;;;;;;;;;1044846;28;20076;-69
2024/01/31 00:59:12;;;;;;;23.10;10.63;;;;;;;;;;1043366;28;20048;-67
2024/01/31 00:59:43;;;;;;;20.98;10.88;;;;;;;;;;1048189;28;20052;-68
2024/01/31 01:00:14;;;;;;;18.50;10.45;;;;;;;;;;1047704;28;20048;-68
2024/01/31 01:00:45;;;;;;;20.60;10.00;;;;;;;;;;1048623;28;20044;-68
2024/01/31 01:01:15;;;;;;;20.55;10.30;;;;;;;;;;1049005;28;20052;-68
2024/01/31 01:01:46;;;;;;;18.90;10.75;;;;;;;;;;1048098;28;20049;-68
2024/01/31 01:02:16;;;;;;;21.65;11.13;;;;;;;;;;1047352;28;20059;-68
2024/01/31 01:02:47;;;;;;;22.23;10.32;;;;;;;;;;1048059;28;20106;-68
2024/01/31 01:03:17;;;;;;;25.08;11.32;;;;;;;;;;1048172;28;20063;-68
2024/01/31 01:03:48;;;;;;;22.95;11.80;;;;;;;;;;1048538;28;20055;-68
2024/01/31 01:04:18;;;;;;;20.52;10.32;;;;;;;;;;1048101;28;20535;-68
2024/01/31 01:04:49;;;;;;;20.40;10.73;;;;;;;;;;1048328;28;20066;-67
2024/01/31 01:05:20;;;;;;;22.05;10.57;;;;;;;;;;1048865;28;20123;-68
2024/01/31 01:05:50;;;;;;;20.80;10.80;;;;;;;;;;1047931;28;20048;-67
2024/01/31 01:06:21;;;;;;;18.08;10.00;;;;;;;;;;1049226;28;20066;-67
2024/01/31 01:06:51;;;;;;;22.60;10.00;;;;;;;;;;1049306;28;20048;-68
2024/01/31 01:07:22;;;;;;;20.95;10.20;;;;;;;;;;1050059;28;20055;-68
2024/01/31 01:07:52;;;;;;;24.50;10.88;;;;;;;;;;1046575;28;20052;-68
2024/01/31 01:08:23;;;;;;;21.33;10.30;;;;;;;;;;1049046;28;20664;-69
2024/01/31 01:08:54;;;;;;;22.63;10.18;;;;;;;;;;1050245;28;20048;-68
2024/01/31 01:09:24;;;;;;;17.77;9.82;;;;;;;;;;1050256;28;20052;-67
2024/01/31 01:09:55;;;;;;;19.90;9.73;;;;;;;;;;1048496;28;20097;-68
2024/01/31 01:10:25;;;;;;;20.27;10.07;;;;;;;;;;1048213;28;20052;-67
2024/01/31 01:10:55;;;;;;;20.30;9.63;;;;;;;;;;1047182;28;20121;-68
2024/01/31 01:11:28;;;;;;;24.30;11.00;;;;;;;;;;1048878;28;20059;-67
2024/01/31 01:11:59;;;;;;;20.63;10.20;;;;;;;;;;1047018;28;21578;-67
2024/01/31 01:12:30;;;;;;;20.73;10.75;;;;;;;;;;1048605;28;20816;-67
2024/01/31 01:13:01;;;;;;;19.75;9.48;;;;;;;;;;1047115;28;20103;-68
2024/01/31 01:13:31;;;;;;;19.10;9.88;;;;;;;;;;1049012;28;20048;-67
2024/01/31 01:14:02;;;;;;;19.42;10.60;;;;;;;;;;1047934;28;20505;-68
2024/01/31 01:14:32;;;;;;;19.73;9.40;;;;;;;;;;1048401;28;20831;-68
2024/01/31 01:15:03;;;;;;;20.45;10.48;;;;;;;;;;1048679;28;20776;-68
2024/01/31 01:15:34;;;;;;;23.42;10.35;;;;;;;;;;1048662;28;20190;-68
2024/01/31 01:16:05;;;;;;;20.40;10.20;;;;;;;;;;1047797;28;20063;-68
2024/01/31 01:16:35;;;;;;;18.55;10.43;;;;;;;;;;1048944;28;20063;-67
2024/01/31 01:17:06;;;;;;;21.23;10.60;;;;;;;;;;1047859;28;20051;-68
2024/01/31 01:17:38;;;;;;;22.52;10.02;;;;;;;;;;1048095;28;20090;-68
2024/01/31 01:18:08;;;;;;;20.73;10.05;;;;;;;;;;1047851;28;21806;-67
2024/01/31 01:18:39;;;;;;;23.05;9.60;;;;;;;;;;1048126;28;20589;-67
2024/01/31 01:19:09;;;;;;;21.48;10.38;;;;;;;;;;1048026;28;20051;-68
2024/01/31 01:19:40;;;;;;;23.27;11.30;;;;;;;;;;1048836;28;20089;-68
2024/01/31 01:20:11;;;;;;;17.25;8.85;;;;;;;;;;1044568;28;20405;-68
2024/01/31 01:20:41;;;;;;;19.73;10.18;;;;;;;;;;1043628;28;21742;-68
2024/01/31 01:21:12;;;;;;;18.35;9.85;;;;;;;;;;1049177;28;20055;-67
2024/01/31 01:21:42;;;;;;;21.90;11.07;;;;;;;;;;1048010;28;20075;-67
2024/01/31 01:22:13;;;;;;;23.85;10.30;;;;;;;;;;1048583;28;20036;-68
2024/01/31 01:22:43;;;;;;;21.02;9.93;;;;;;;;;;1046489;28;20324;-68
2024/01/31 01:23:15;;;;;;;23.45;11.50;;;;;;;;;;1043651;28;21512;-68
2024/01/31 01:23:45;;;;;;;20.90;10.50;;;;;;;;;;1044803;28;20048;-68
2024/01/31 01:24:16;;;;;;;17.40;9.38;;;;;;;;;;1044652;28;20144;-68
2024/01/31 01:24:46;;;;;;;16.25;9.80;;;;;;;;;;1043855;28;20055;-67
2024/01/31 01:25:17;;;;;;;26.45;10.32;;;;;;;;;;1046319;28;20084;-68
2024/01/31 01:25:47;;;;;;;17.92;9.32;;;;;;;;;;1046497;28;20501;-67
2024/01/31 01:26:18;;;;;;;24.92;9.88;;;;;;;;;;1049796;28;20052;-67
2024/01/31 01:26:49;;;;;;;18.90;9.50;;;;;;;;;;1047682;28;20597;-67
2024/01/31 01:27:19;;;;;;;21.65;9.52;;;;;;;;;;1049048;28;20055;-68
2024/01/31 01:27:53;;;;;;;18.63;9.88;;;;;;;;;;1048029;28;20123;-67
2024/01/31 01:28:23;;;;;;;19.95;9.30;;;;;;;;;;1048218;28;20101;-67
2024/01/31 01:28:54;;;;;;;20.52;10.38;;;;;;;;;;1047621;28;20097;-68
2024/01/31 01:29:24;;;;;;;20.33;9.55;;;;;;;;;;1046868;28;20056;-68
2024/01/31 01:29:55;;;;;;;16.55;8.98;;;;;;;;;;1045060;28;20055;-68
2024/01/31 01:30:26;;;;;;;19.73;10.25;;;;;;;;;;1044836;28;20068;-68
2024/01/31 01:30:57;;;;;;;21.92;10.55;;;;;;;;;;1046092;28;20078;-67
2024/01/31 01:31:27;;;;;;;17.80;9.50;;;;;;;;;;1049844;28;20177;-67
2024/01/31 01:31:58;;;;;;;18.92;9.70;;;;;;;;;;1048877;28;20060;-68
2024/01/31 01:32:28;;;;;;;20.63;9.80;;;;;;;;;;1047736;28;20120;-68
2024/01/31 01:32:58;;;;;;;21.85;9.40;;;;;;;;;;1049018;28;20056;-67
2024/01/31 01:33:29;;;;;;;17.90;10.05;;;;;;;;;;1047830;28;20147;-67
2024/01/31 01:34:00;;;;;;;18.67;9.70;;;;;;;;;;1048905;28;20067;-68
2024/01/31 01:34:30;;;;;;;17.60;9.32;;;;;;;;;;1049554;28;20052;-67
2024/01/31 01:35:01;;;;;;;25.45;11.20;;;;;;;;;;1049513;28;20046;-68
2024/01/31 01:35:32;;;;;;;19.48;10.02;;;;;;;;;;1046973;28;20052;-68
2024/01/31 01:36:03;;;;;;;18.08;9.43;;;;;;;;;;1045625;28;20051;-68
2024/01/31 01:36:34;;;;;;;17.58;10.27;;;;;;;;;;1043990;28;20149;-67
2024/01/31 01:37:04;;;;;;;20.23;10.10;;;;;;;;;;1047866;28;20044;-67
2024/01/31 01:37:35;;;;;;;19.50;9.18;;;;;;;;;;1050454;28;20068;-67
2024/01/31 01:38:06;;;;;;;22.30;9.90;;;;;;;;;;1047936;28;20787;-67
2024/01/31 01:38:37;;;;;;;21.92;10.05;;;;;;;;;;1048772;28;20059;-67
2024/01/31 01:39:08;;;;;;;19.70;10.18;;;;;;;;;;1048408;28;20205;-67
2024/01/31 01:39:39;;;;;;;20.35;10.00;;;;;;;;;;1048741;28;20458;-68
2024/01/31 01:40:10;;;;;;;21.65;10.15;;;;;;;;;;1047530;28;20043;-67
2024/01/31 01:40:44;;;;;;;22.02;9.63;;;;;;;;;;1048303;28;20086;-68
2024/01/31 01:41:15;;;;;;;19.90;9.90;;;;;;;;;;1048439;28;20144;-67
2024/01/31 01:41:49;;;;;;;20.23;10.18;;;;;;;;;;1048673;28;20054;-68
2024/01/31 01:42:20;;;;;;;22.15;10.35;;;;;;;;;;1047925;28;20044;-68
2024/01/31 01:42:50;;;;;;;19.40;10.20;;;;;;;;;;1048286;28;20064;-67
2024/01/31 01:43:21;;;;;;;19.83;10.13;;;;;;;;;;1048015;28;20315;-68
2024/01/31 01:43:51;;;;;;;17.95;10.07;;;;;;;;;;1048432;28;20076;-68
2024/01/31 01:44:22;;;;;;;18.33;10.35;;;;;;;;;;1048633;28;20048;-68
2024/01/31 01:44:52;;;;;;;19.42;10.35;;;;;;;;;;1048240;28;20064;-68
2024/01/31 01:45:23;;;;;;;17.88;9.98;;;;;;;;;;1048400;28;20098;-68
2024/01/31 01:46:12;;;;;;;21.60;9.98;;;;;;;;;;1048314;28;20843;-67
2024/01/31 01:46:44;;;;;;;23.45;10.90;;;;;;;;;;1047282;28;20048;-69
2024/01/31 01:47:15;;;;;;;17.02;9.70;;;;;;;;;;1048386;28;20051;-68
2024/01/31 01:47:50;;;;;;;18.50;9.90;;;;;;;;;;1046544;28;20044;-68
2024/01/31 01:48:21;;;;;;;16.88;9.55;;;;;;;;;;1048955;28;20063;-68
2024/01/31 01:48:51;;;;;;;16.88;8.70;;;;;;;;;;1047998;28;20195;-68
2024/01/31 01:49:22;;;;;;;20.50;10.00;;;;;;;;;;1049311;28;21476;-67
2024/01/31 01:49:52;;;;;;;22.95;10.32;;;;;;;;;;1047031;28;20143;-67
2024/01/31 01:50:24;;;;;;;19.38;9.80;;;;;;;;;;1049047;28;20048;-68
2024/01/31 01:50:55;;;;;;;22.20;10.60;;;;;;;;;;1048525;28;20135;-67
2024/01/31 01:51:25;;;;;;;17.42;10.15;;;;;;;;;;1048207;28;20064;-68
2024/01/31 01:51:56;;;;;;;21.50;10.38;;;;;;;;;;1050384;28;20040;-67
2024/01/31 01:52:27;;;;;;;17.33;9.60;;;;;;;;;;1048403;28;20036;-67
2024/01/31 01:52:58;;;;;;;21.52;9.77;;;;;;;;;;1048010;28;20040;-68
2024/01/31 01:53:32;;;;;;;23.52;10.48;;;;;;;;;;1048380;28;20047;-67
2024/01/31 01:54:03;;;;;;;15.98;8.98;;;;;;;;;;1048128;28;20186;-67
2024/01/31 01:54:34;;;;;;;21.38;10.02;;;;;;;;;;1049157;28;20051;-68
2024/01/31 01:55:06;;;;;;;20.65;10.02;;;;;;;;;;1048476;28;20052;-67
2024/01/31 01:55:38;;;;;;;18.50;9.95;;;;;;;;;;1047943;28;20039;-67
2024/01/31 01:56:09;;;;;;;18.65;9.75;;;;;;;;;;1048664;28;20052;-68
2024/01/31 01:56:45;;;;;;;21.20;10.88;;;;;;;;;;1048053;28;20070;-68
2024/01/31 01:57:16;;;;;;;18.27;9.60;;;;;;;;;;1044794;28;20060;-67
2024/01/31 01:57:46;;;;;;;21.27;9.43;;;;;;;;;;1044648;28;20052;-68
2024/01/31 01:58:17;;;;;;;17.55;9.57;;;;;;;;;;1045446;28;20078;-67
2024/01/31 01:58:48;;;;;;;19.02;10.18;;;;;;;;;;1046034;28;20079;-67
2024/01/31 01:59:19;;;;;;;16.42;8.77;;;;;;;;;;1043538;28;20036;-67
2024/01/31 01:59:50;;;;;;;19.40;10.10;;;;;;;;;;1044115;28;20045;-68
2024/01/31 02:00:24;;;;;;;18.42;10.00;;;;;;;;;;1044427;28;21555;-68
2024/01/31 02:00:55;;;;;;;24.63;9.75;;;;;;;;;;1045234;28;20080;-68
2024/01/31 02:01:27;;;;;;;17.60;9.43;;;;;;;;;;1048839;28;20048;-67
2024/01/31 02:01:59;;;;;;;17.65;10.05;;;;;;;;;;1048172;28;20052;-68
2024/01/31 02:02:29;;;;;;;17.88;9.23;;;;;;;;;;1049558;28;20823;-67
2024/01/31 02:03:01;;;;;;;17.08;9.48;;;;;;;;;;1047406;28;20044;-68
2024/01/31 02:03:32;;;;;;;19.63;9.95;;;;;;;;;;1047658;28;20039;-68
2024/01/31 02:04:05;;;;;;;20.98;10.60;;;;;;;;;;1048321;28;20052;-68
2024/01/31 02:04:35;;;;;;;20.30;10.10;;;;;;;;;;1048414;28;20052;-67
2024/01/31 02:05:07;;;;;;;17.80;9.63;;;;;;;;;;1048037;28;20107;-68
2024/01/31 02:05:39;;;;;;;20.15;9.50;;;;;;;;;;1048669;28;20084;-67
2024/01/31 02:06:09;;;;;;;18.92;10.43;;;;;;;;;;1048592;28;20639;-68
2024/01/31 02:06:40;;;;;;;18.58;9.30;;;;;;;;;;1047891;28;20488;-67
2024/01/31 02:07:11;;;;;;;14.82;8.98;;;;;;;;;;1042814;28;20459;-68
2024/01/31 02:07:42;;;;;;;21.50;10.32;;;;;;;;;;1042662;28;20842;-67
2024/01/31 02:08:13;;;;;;;17.70;9.02;;;;;;;;;;1045301;28;20126;-66
2024/01/31 02:08:43;;;;;;;16.20;8.73;;;;;;;;;;1044156;28;20139;-67
2024/01/31 02:09:14;;;;;;;19.75;10.05;;;;;;;;;;1043499;28;20051;-68
2024/01/31 02:09:45;;;;;;;17.98;9.63;;;;;;;;;;1043352;28;20048;-68
2024/01/31 02:10:16;;;;;;;16.42;9.40;;;;;;;;;;1046001;28;20075;-68
2024/01/31 02:10:46;;;;;;;21.00;10.70;;;;;;;;;;1045763;28;20055;-68
2024/01/31 02:11:17;;;;;;;17.60;9.63;;;;;;;;;;1044379;28;20040;-67
2024/01/31 02:11:47;;;;;;;22.40;10.32;;;;;;;;;;1043799;28;20139;-67
2024/01/31 02:12:18;;;;;;;22.92;10.20;;;;;;;;;;1044782;28;20816;-69
2024/01/31 02:12:48;;;;;;;22.95;10.15;;;;;;;;;;1043839;28;20067;-67
2024/01/31 02:13:19;;;;;;;17.55;10.00;;;;;;;;;;1044599;28;20053;-67
2024/01/31 02:13:50;;;;;;;18.00;10.23;;;;;;;;;;1044385;28;20037;-68
2024/01/31 02:14:20;;;;;;;21.48;9.82;;;;;;;;;;1048028;28;20115;-68
2024/01/31 02:14:52;;;;;;;16.23;9.38;;;;;;;;;;1047651;28;20113;-68
2024/01/31 02:15:23;;;;;;;21.35;9.65;;;;;;;;;;1048450;28;20123;-69
2024/01/31 02:15:58;;;;;;;17.60;9.52;;;;;;;;;;1044176;28;20119;-68
2024/01/31 02:16:28;;;;;;;22.45;10.02;;;;;;;;;;1043601;28;20128;-67
2024/01/31 02:16:59;;;;;;;20.35;9.52;;;;;;;;;;1045262;28;20065;-67
2024/01/31 02:17:33;;;;;;;17.98;9.73;;;;;;;;;;1047814;28;20119;-67
2024/01/31 02:18:04;;;;;;;19.50;9.88;;;;;;;;;;1048381;28;20052;-67
2024/01/31 02:18:34;;;;;;;18.15;9.65;;;;;;;;;;1047040;28;20079;-68
2024/01/31 02:19:05;;;;;;;18.48;9.82;;;;;;;;;;1043949;28;20477;-68
2024/01/31 02:19:35;;;;;;;25.20;11.60;;;;;;;;;;1044333;28;21317;-67
2024/01/31 02:20:06;;;;;;;16.30;9.45;;;;;;;;;;1043628;28;20052;-67
2024/01/31 02:20:37;;;;;;;19.83;10.00;;;;;;;;;;1044604;28;20123;-68
2024/01/31 02:21:07;;;;;;;18.13;9.18;;;;;;;;;;1047267;28;20044;-68
2024/01/31 02:21:41;;;;;;;19.50;10.10;;;;;;;;;;1049472;28;20757;-68
2024/01/31 02:22:19;;;;;;;21.63;9.98;;;;;;;;;;1044207;28;20052;-68
2024/01/31 02:22:49;;;;;;;21.38;9.55;;;;;;;;;;1045048;28;20049;-67
2024/01/31 02:23:21;;;;;;;20.52;10.55;;;;;;;;;;1045347;28;20047;-68
2024/01/31 02:23:52;;;;;;;18.60;10.52;;;;;;;;;;1046199;28;20570;-68
2024/01/31 02:24:22;;;;;;;17.00;9.20;;;;;;;;;;1048581;28;20480;-67
2024/01/31 02:24:53;;;;;;;18.25;9.13;;;;;;;;;;1046403;28;20617;-67
2024/01/31 02:25:24;;;;;;;17.55;9.50;;;;;;;;;;1045074;28;20044;-68
2024/01/31 02:25:54;;;;;;;18.38;9.20;;;;;;;;;;1047590;28;20048;-68
2024/01/31 02:26:25;;;;;;;17.98;10.40;;;;;;;;;;1049060;28;20417;-67
2024/01/31 02:26:55;;;;;;;18.65;9.75;;;;;;;;;;1048291;28;20660;-67
2024/01/31 02:27:26;;;;;;;20.13;10.25;;;;;;;;;;1048985;28;20055;-68
2024/01/31 02:27:56;;;;;;;19.90;9.65;;;;;;;;;;1045584;28;20044;-68
2024/01/31 02:28:27;;;;;;;18.23;9.10;;;;;;;;;;1039990;28;20037;-67
2024/01/31 02:28:57;;;;;;;19.95;9.82;;;;;;;;;;1038812;28;20087;-67
2024/01/31 02:29:28;;;;;;;21.33;9.70;;;;;;;;;;1039565;28;20144;-67
2024/01/31 02:29:58;;;;;;;18.02;9.85;;;;;;;;;;1045259;28;20125;-67
2024/01/31 02:30:29;;;;;;;15.52;8.95;;;;;;;;;;1044433;28;20714;-68
2024/01/31 02:30:59;;;;;;;17.92;9.00;;;;;;;;;;1047054;28;20044;-68
2024/01/31 02:31:30;;;;;;;17.90;9.43;;;;;;;;;;1048070;28;20048;-68
2024/01/31 02:32:01;;;;;;;19.95;9.52;;;;;;;;;;1047696;28;20139;-68
2024/01/31 02:32:31;;;;;;;16.00;8.88;;;;;;;;;;1049023;28;20134;-68
2024/01/31 02:33:02;;;;;;;19.52;10.50;;;;;;;;;;1046503;28;20197;-67
2024/01/31 02:33:32;;;;;;;16.27;9.60;;;;;;;;;;1048906;28;20052;-67
2024/01/31 02:34:03;;;;;;;18.05;9.73;;;;;;;;;;1047234;28;20408;-67
2024/01/31 02:34:33;;;;;;;17.55;9.30;;;;;;;;;;1049036;28;20097;-68
2024/01/31 02:35:05;;;;;;;21.50;9.52;;;;;;;;;;1047901;28;20436;-67
2024/01/31 02:35:36;;;;;;;18.10;9.85;;;;;;;;;;1048784;28;20129;-67
2024/01/31 02:36:06;;;;;;;20.70;10.07;;;;;;;;;;1048508;28;20060;-68
2024/01/31 02:36:37;;;;;;;17.83;10.18;;;;;;;;;;1048605;28;20059;-68
2024/01/31 02:37:07;;;;;;;17.83;9.02;;;;;;;;;;1043694;28;20378;-67
2024/01/31 02:37:41;;;;;;;17.65;9.85;;;;;;;;;;1044563;28;20436;-67
2024/01/31 02:38:12;;;;;;;23.15;10.07;;;;;;;;;;1044759;28;20828;-68
2024/01/31 02:38:42;;;;;;;20.42;10.43;;;;;;;;;;1043518;28;20106;-68
2024/01/31 02:39:13;;;;;;;15.38;9.45;;;;;;;;;;1049054;28;21970;-68
2024/01/31 02:39:43;;;;;;;16.83;9.35;;;;;;;;;;1046253;28;20056;-67
2024/01/31 02:40:15;;;;;;;18.33;8.85;;;;;;;;;;1043036;28;20902;-67
2024/01/31 02:40:45;;;;;;;19.55;9.32;;;;;;;;;;1042914;28;21633;-67
2024/01/31 02:41:16;;;;;;;18.02;9.13;;;;;;;;;;1044622;28;20469;-67
2024/01/31 02:41:46;;;;;;;16.30;9.02;;;;;;;;;;1044316;28;20044;-67
2024/01/31 02:42:17;;;;;;;15.90;9.52;;;;;;;;;;1048108;28;20468;-67
2024/01/31 02:42:48;;;;;;;18.83;9.35;;;;;;;;;;1048842;28;20055;-68
2024/01/31 02:43:19;;;;;;;18.00;9.95;;;;;;;;;;1053167;28;20070;-68
2024/01/31 02:43:50;;;;;;;20.98;10.15;;;;;;;;;;1050751;28;20111;-67
2024/01/31 02:44:21;;;;;;;20.35;9.32;;;;;;;;;;1050573;28;20586;-68
2024/01/31 02:44:52;;;;;;;17.15;9.48;;;;;;;;;;1046859;28;20098;-68
2024/01/31 02:45:23;;;;;;;17.58;9.70;;;;;;;;;;1047436;28;20185;-68
2024/01/31 02:45:53;;;;;;;17.48;9.10;;;;;;;;;;1048067;28;20049;-68
2024/01/31 02:46:25;;;;;;;16.10;9.20;;;;;;;;;;1048270;28;20112;-68
2024/01/31 02:46:55;;;;;;;17.92;9.50;;;;;;;;;;1047971;28;20056;-68
2024/01/31 02:47:26;;;;;;;17.48;8.95;;;;;;;;;;1048114;28;20048;-67
2024/01/31 02:47:56;;;;;;;17.00;9.00;;;;;;;;;;1047789;28;20557;-67
2024/01/31 02:48:27;;;;;;;17.23;8.93;;;;;;;;;;1048308;28;20059;-67
2024/01/31 02:49:00;;;;;;;18.63;9.15;;;;;;;;;;1048096;28;20106;-67
2024/01/31 02:49:30;;;;;;;16.75;9.90;;;;;;;;;;1048396;28;20083;-67
2024/01/31 02:50:01;;;;;;;18.70;9.57;;;;;;;;;;1047689;28;20052;-69
2024/01/31 02:50:32;;;;;;;17.08;9.52;;;;;;;;;;1047489;28;20059;-68
2024/01/31 02:51:03;;;;;;;20.27;10.27;;;;;;;;;;1047550;28;20063;-68
2024/01/31 02:51:34;;;;;;;19.73;10.15;;;;;;;;;;1049182;28;20040;-67
2024/01/31 02:52:04;;;;;;;19.10;9.63;;;;;;;;;;1047863;28;20052;-67
2024/01/31 02:52:35;;;;;;;16.60;9.88;;;;;;;;;;1047381;28;20067;-68
2024/01/31 02:53:05;;;;;;;22.55;9.75;;;;;;;;;;1047129;28;20048;-67
2024/01/31 02:53:36;;;;;;;18.08;9.55;;;;;;;;;;1048519;28;20529;-69
2024/01/31 02:54:07;;;;;;;18.98;9.30;;;;;;;;;;1048632;28;20045;-67
2024/01/31 02:54:37;;;;;;;21.65;10.35;;;;;;;;;;1048853;28;20040;-68
2024/01/31 02:55:08;;;;;;;19.08;10.27;;;;;;;;;;1047857;28;20047;-67
2024/01/31 02:55:39;;;;;;;13.93;9.75;;;;;;;;;;1048383;28;20151;-68
2024/01/31 02:56:09;;;;;;;16.90;9.85;;;;;;;;;;1046556;28;20576;-67
2024/01/31 02:56:40;;;;;;;18.60;9.98;;;;;;;;;;1048879;28;20052;-68
2024/01/31 02:57:10;;;;;;;19.17;9.48;;;;;;;;;;1046355;28;20167;-67
2024/01/31 02:57:41;;;;;;;17.05;9.05;;;;;;;;;;1048478;28;20071;-68
2024/01/31 02:58:12;;;;;;;20.48;9.98;;;;;;;;;;1048429;28;20053;-68
2024/01/31 02:58:42;;;;;;;19.55;10.57;;;;;;;;;;1048440;28;20054;-68
2024/01/31 02:59:13;;;;;;;17.00;9.52;;;;;;;;;;1049745;28;20040;-68
2024/01/31 02:59:43;;;;;;;17.83;9.98;;;;;;;;;;1048617;28;20085;-67
2024/01/31 03:00:14;;;;;;;20.25;9.30;;;;;;;;;;1049396;28;20061;-68
2024/01/31 03:00:45;;;;;;;18.83;9.32;;;;;;;;;;1047968;28;20125;-68
2024/01/31 03:01:15;;;;;;;18.13;9.45;;;;;;;;;;1048626;28;20052;-68